createdAt,value
2022-12-31T00:01:58.118Z,11.09
2022-12-31T00:04:25.268Z,11.11
2022-12-31T00:06:52.264Z,11.19
2022-12-31T00:09:19.299Z,11.18
2022-12-31T00:11:46.364Z,11.08
2022-12-31T00:14:13.441Z,11.20
2022-12-31T00:16:42.064Z,11.22
2022-12-31T00:19:12.135Z,11.21
2022-12-31T00:21:39.529Z,11.06
2022-12-31T00:24:07.902Z,11.03
2022-12-31T00:26:36.662Z,10.93
2022-12-31T00:29:04.732Z,10.99
2022-12-31T00:31:37.692Z,11.02
2022-12-31T00:34:06.586Z,10.95
2022-12-31T00:36:37.701Z,10.98
2022-12-31T00:39:08.275Z,11.04
2022-12-31T00:41:36.717Z,11.02
2022-12-31T00:44:04.017Z,11.04
2022-12-31T00:46:31.840Z,11.07
2022-12-31T00:48:59.048Z,11.09
2022-12-31T00:51:27.591Z,11.06
2022-12-31T00:53:56.539Z,10.99
2022-12-31T00:56:26.751Z,11.12
2022-12-31T00:58:54.247Z,11.11
2022-12-31T01:01:30.713Z,11.05
2022-12-31T01:04:00.846Z,11.06
2022-12-31T01:06:27.927Z,11.13
2022-12-31T01:08:55.629Z,11.02
2022-12-31T01:11:23.860Z,10.95
2022-12-31T01:13:59.928Z,10.96
2022-12-31T01:16:31.323Z,10.93
2022-12-31T01:19:03.871Z,10.79
2022-12-31T01:21:31.983Z,10.87
2022-12-31T01:23:59.617Z,10.87
2022-12-31T01:26:28.046Z,10.85
2022-12-31T01:28:55.133Z,10.82
2022-12-31T01:31:23.831Z,10.83
2022-12-31T01:33:52.013Z,10.80
2022-12-31T01:36:25.873Z,10.72
2022-12-31T01:38:55.333Z,10.76
2022-12-31T01:41:31.094Z,10.71
2022-12-31T01:44:01.635Z,10.69
2022-12-31T01:46:37.880Z,10.73
2022-12-31T01:49:19.205Z,10.71
2022-12-31T01:51:50.624Z,10.66
2022-12-31T01:54:21.137Z,10.66
2022-12-31T01:56:50.292Z,10.66
2022-12-31T01:59:19.373Z,10.66
2022-12-31T02:01:48.360Z,10.66
2022-12-31T02:04:16.472Z,10.63
2022-12-31T02:06:53.511Z,10.56
2022-12-31T02:09:20.656Z,10.54
2022-12-31T02:11:47.777Z,10.43
2022-12-31T02:14:18.900Z,10.57
2022-12-31T02:16:51.575Z,10.58
2022-12-31T02:19:42.577Z,10.57
2022-12-31T02:22:36.794Z,10.49
2022-12-31T02:25:31.490Z,10.58
2022-12-31T02:28:29.378Z,10.63
2022-12-31T02:31:03.177Z,10.61
2022-12-31T02:33:35.258Z,10.57
2022-12-31T02:36:08.859Z,10.53
2022-12-31T02:38:41.655Z,10.57
2022-12-31T02:41:33.463Z,10.52
2022-12-31T02:44:00.556Z,10.44
2022-12-31T02:46:46.558Z,10.44
2022-12-31T02:49:39.895Z,10.41
2022-12-31T02:52:18.005Z,10.33
2022-12-31T02:54:58.802Z,10.33
2022-12-31T02:57:44.452Z,10.41
2022-12-31T03:00:33.464Z,10.36
2022-12-31T03:03:02.039Z,10.33
2022-12-31T03:05:34.397Z,10.30
2022-12-31T03:08:01.489Z,10.39
2022-12-31T03:10:28.650Z,10.26
2022-12-31T03:12:55.729Z,10.23
2022-12-31T03:15:27.170Z,10.21
2022-12-31T03:17:57.690Z,10.18
2022-12-31T03:20:54.430Z,10.22
2022-12-31T03:23:29.168Z,10.23
2022-12-31T03:25:57.220Z,10.09
2022-12-31T03:28:27.598Z,10.11
2022-12-31T03:31:00.889Z,10.05
2022-12-31T03:33:32.985Z,10.02
2022-12-31T03:36:03.900Z,10.01
2022-12-31T03:38:30.920Z,10.03
2022-12-31T03:40:57.905Z,10.03
2022-12-31T03:43:24.948Z,9.97
2022-12-31T03:45:53.980Z,9.98
2022-12-31T03:48:22.703Z,9.94
2022-12-31T03:50:50.089Z,9.93
2022-12-31T03:53:17.487Z,9.96
2022-12-31T03:55:44.778Z,9.92
2022-12-31T03:58:11.857Z,9.94
2022-12-31T04:00:39.017Z,9.93
2022-12-31T04:03:06.816Z,9.91
2022-12-31T04:05:33.954Z,9.91
2022-12-31T04:08:01.082Z,9.87
2022-12-31T04:10:28.344Z,9.87
2022-12-31T04:12:55.393Z,9.86
2022-12-31T04:15:22.396Z,9.91
2022-12-31T04:17:49.496Z,9.90
2022-12-31T04:20:16.977Z,9.84
2022-12-31T04:22:44.252Z,9.79
2022-12-31T04:25:12.864Z,9.78
2022-12-31T04:27:41.266Z,9.79
2022-12-31T04:30:09.145Z,9.72
2022-12-31T04:32:36.712Z,9.71
2022-12-31T04:35:03.898Z,9.71
2022-12-31T04:37:30.892Z,9.73
2022-12-31T04:40:03.534Z,9.75
2022-12-31T04:42:33.835Z,9.70
2022-12-31T04:45:00.940Z,9.70
2022-12-31T04:47:28.165Z,9.77
2022-12-31T04:49:55.188Z,9.74
2022-12-31T04:52:22.667Z,9.69
2022-12-31T04:54:50.074Z,9.77
2022-12-31T04:57:17.128Z,9.69
2022-12-31T04:59:44.173Z,9.63
2022-12-31T05:02:11.378Z,9.58
2022-12-31T05:04:38.594Z,9.63
2022-12-31T05:07:05.669Z,9.64
2022-12-31T05:09:32.727Z,9.63
2022-12-31T05:11:59.779Z,9.66
2022-12-31T05:14:26.838Z,9.64
2022-12-31T05:16:54.300Z,9.63
2022-12-31T05:19:21.526Z,9.68
2022-12-31T05:22:08.488Z,9.65
2022-12-31T05:24:36.455Z,9.67
2022-12-31T05:27:03.845Z,9.81
2022-12-31T05:29:30.944Z,9.83
2022-12-31T05:31:57.973Z,9.79
2022-12-31T05:34:25.030Z,9.85
2022-12-31T05:36:52.145Z,9.87
2022-12-31T05:39:19.372Z,9.90
2022-12-31T05:41:46.433Z,9.91
2022-12-31T05:44:13.429Z,9.94
2022-12-31T05:46:40.524Z,9.98
2022-12-31T05:49:07.908Z,10.04
2022-12-31T05:51:34.907Z,10.05
2022-12-31T05:54:01.889Z,10.01
2022-12-31T05:56:28.894Z,10.14
2022-12-31T05:58:56.008Z,10.18
2022-12-31T06:01:23.095Z,10.18
2022-12-31T06:03:50.288Z,10.14
2022-12-31T06:06:17.407Z,10.28
2022-12-31T06:08:44.405Z,10.26
2022-12-31T06:11:11.402Z,10.33
2022-12-31T06:13:38.465Z,10.30
2022-12-31T06:16:09.258Z,10.36
2022-12-31T06:18:37.732Z,10.36
2022-12-31T06:21:05.060Z,10.37
2022-12-31T06:23:32.036Z,10.43
2022-12-31T06:26:05.710Z,10.39
2022-12-31T06:28:33.827Z,10.35
2022-12-31T06:31:06.722Z,10.46
2022-12-31T06:33:34.878Z,10.49
2022-12-31T06:36:04.353Z,10.57
2022-12-31T06:38:33.998Z,10.55
2022-12-31T06:41:10.102Z,10.54
2022-12-31T06:43:38.674Z,10.54
2022-12-31T06:46:09.148Z,10.59
2022-12-31T06:48:38.293Z,10.60
2022-12-31T06:51:11.882Z,10.72
2022-12-31T06:53:42.087Z,10.75
2022-12-31T06:56:14.850Z,10.77
2022-12-31T06:58:42.198Z,10.84
2022-12-31T07:01:14.940Z,10.90
2022-12-31T07:03:58.489Z,10.96
2022-12-31T07:06:54.865Z,11.03
2022-12-31T07:09:39.879Z,11.14
2022-12-31T07:12:19.909Z,11.31
2022-12-31T07:14:57.885Z,11.39
2022-12-31T07:17:43.342Z,11.47
2022-12-31T07:20:14.094Z,11.49
2022-12-31T07:22:41.469Z,11.52
2022-12-31T07:25:14.399Z,11.53
2022-12-31T07:27:52.713Z,11.56
2022-12-31T07:30:22.855Z,11.62
2022-12-31T07:33:08.359Z,11.66
2022-12-31T07:36:06.631Z,11.71
2022-12-31T07:39:12.091Z,11.77
2022-12-31T07:41:44.232Z,11.89
2022-12-31T07:44:47.986Z,11.92
2022-12-31T07:47:27.103Z,11.98
2022-12-31T07:49:55.588Z,11.98
2022-12-31T07:52:22.895Z,12.02
2022-12-31T07:54:50.152Z,12.03
2022-12-31T07:57:18.788Z,12.05
2022-12-31T08:00:07.929Z,12.05
2022-12-31T08:03:16.173Z,12.13
2022-12-31T08:05:50.271Z,12.18
2022-12-31T08:08:38.831Z,12.19
2022-12-31T08:11:41.134Z,12.21
2022-12-31T08:14:11.572Z,12.21
2022-12-31T08:16:39.389Z,12.15
2022-12-31T08:19:13.791Z,12.20
2022-12-31T08:21:56.849Z,12.17
2022-12-31T08:24:54.640Z,12.16
2022-12-31T08:27:27.233Z,12.25
2022-12-31T08:30:02.925Z,12.28
2022-12-31T08:32:38.596Z,12.31
2022-12-31T08:35:16.628Z,12.27
2022-12-31T08:38:08.547Z,12.28
2022-12-31T08:40:51.349Z,12.26
2022-12-31T08:43:55.689Z,12.21
2022-12-31T08:46:29.317Z,12.18
2022-12-31T08:48:56.450Z,12.24
2022-12-31T08:51:25.640Z,12.21
2022-12-31T08:53:53.460Z,12.21
2022-12-31T08:56:28.388Z,12.13
2022-12-31T08:59:08.531Z,12.15
2022-12-31T09:01:52.897Z,12.04
2022-12-31T09:04:30.735Z,12.01
2022-12-31T09:07:03.442Z,11.96
2022-12-31T09:09:56.480Z,11.95
2022-12-31T09:12:36.556Z,11.91
2022-12-31T09:15:13.082Z,11.93
2022-12-31T09:17:50.127Z,11.88
2022-12-31T09:20:42.997Z,11.83
2022-12-31T09:23:13.180Z,11.87
2022-12-31T09:25:58.617Z,11.99
2022-12-31T09:28:48.396Z,12.12
2022-12-31T09:31:21.745Z,12.25
2022-12-31T09:34:02.110Z,12.15
2022-12-31T09:36:48.349Z,12.18
2022-12-31T09:39:42.228Z,12.17
2022-12-31T09:42:51.542Z,12.08
2022-12-31T09:45:31.012Z,12.26
2022-12-31T09:48:07.655Z,12.24
2022-12-31T09:50:53.977Z,12.31
2022-12-31T09:53:35.044Z,12.51
2022-12-31T09:56:13.788Z,12.51
2022-12-31T09:58:58.671Z,12.64
2022-12-31T10:01:56.976Z,12.64
2022-12-31T10:04:58.172Z,12.73
2022-12-31T10:07:53.902Z,12.73
2022-12-31T10:10:30.165Z,12.80
2022-12-31T10:13:25.085Z,12.88
2022-12-31T10:16:22.810Z,12.92
2022-12-31T10:19:22.494Z,12.89
2022-12-31T10:22:08.207Z,12.93
2022-12-31T10:24:41.048Z,13.01
2022-12-31T10:27:16.855Z,13.03
2022-12-31T10:29:48.390Z,13.23
2022-12-31T10:32:23.735Z,13.20
2022-12-31T10:35:13.683Z,13.24
2022-12-31T10:37:56.603Z,13.29
2022-12-31T10:40:42.402Z,13.27
2022-12-31T10:43:34.056Z,13.31
2022-12-31T10:46:29.675Z,13.29
2022-12-31T10:49:02.423Z,13.39
2022-12-31T10:51:48.073Z,13.45
2022-12-31T10:54:33.154Z,13.47
2022-12-31T10:57:01.070Z,13.47
2022-12-31T10:59:46.036Z,13.48
2022-12-31T11:02:28.297Z,13.48
2022-12-31T11:05:37.572Z,13.48
2022-12-31T11:08:34.652Z,13.47
2022-12-31T11:11:26.559Z,13.35
2022-12-31T11:14:31.217Z,13.30
2022-12-31T11:16:58.777Z,13.29
2022-12-31T11:19:48.874Z,13.25
2022-12-31T11:22:47.736Z,13.27
2022-12-31T11:25:49.993Z,13.24
2022-12-31T11:28:40.315Z,13.22
2022-12-31T11:31:22.481Z,13.19
2022-12-31T11:34:01.878Z,13.20
2022-12-31T11:36:37.661Z,13.18
2022-12-31T11:39:31.510Z,13.14
2022-12-31T11:42:36.564Z,13.18
2022-12-31T11:45:27.777Z,13.14
2022-12-31T11:48:32.168Z,13.09
2022-12-31T11:51:37.553Z,13.07
2022-12-31T11:54:42.739Z,13.10
2022-12-31T11:57:24.336Z,13.09
2022-12-31T12:00:01.395Z,13.13
2022-12-31T12:02:34.076Z,13.18
2022-12-31T12:05:10.746Z,13.23
2022-12-31T12:07:38.301Z,13.29
2022-12-31T12:10:23.835Z,13.28
2022-12-31T12:12:54.288Z,13.33
2022-12-31T12:15:29.242Z,13.36
2022-12-31T12:17:58.767Z,13.38
2022-12-31T12:20:32.227Z,13.39
2022-12-31T12:23:01.238Z,13.43
2022-12-31T12:25:39.505Z,13.44
2022-12-31T12:28:18.490Z,13.44
2022-12-31T12:30:52.768Z,13.51
2022-12-31T12:33:21.480Z,13.52
2022-12-31T12:35:48.609Z,13.51
2022-12-31T12:38:19.057Z,13.57
2022-12-31T12:41:00.517Z,13.51
2022-12-31T12:43:34.077Z,13.36
2022-12-31T12:46:27.866Z,13.44
2022-12-31T12:48:57.556Z,13.43
2022-12-31T12:52:01.955Z,13.51
2022-12-31T12:54:43.844Z,13.54
2022-12-31T12:57:20.939Z,13.57
2022-12-31T13:00:07.657Z,13.56
2022-12-31T13:03:12.069Z,13.64
2022-12-31T13:05:52.598Z,13.59
2022-12-31T13:08:30.276Z,13.63
2022-12-31T13:11:29.960Z,13.72
2022-12-31T13:14:20.997Z,13.61
2022-12-31T13:17:18.694Z,13.62
2022-12-31T13:19:50.916Z,13.60
2022-12-31T13:22:33.315Z,13.56
2022-12-31T13:25:21.699Z,13.54
2022-12-31T13:27:54.000Z,13.52
2022-12-31T13:30:24.841Z,13.45
2022-12-31T13:33:25.398Z,13.40
2022-12-31T13:35:56.267Z,13.40
2022-12-31T13:38:23.222Z,13.35
2022-12-31T13:41:09.103Z,13.34
2022-12-31T13:44:13.158Z,13.32
2022-12-31T13:46:48.101Z,13.28
2022-12-31T13:49:33.469Z,13.26
2022-12-31T13:52:18.561Z,13.27
2022-12-31T13:54:56.020Z,13.26
2022-12-31T13:57:41.931Z,13.25
2022-12-31T14:00:50.196Z,13.16
2022-12-31T14:03:33.754Z,13.17
2022-12-31T14:06:19.340Z,13.23
2022-12-31T14:08:46.736Z,13.23
2022-12-31T14:11:55.614Z,13.24
2022-12-31T14:14:56.024Z,13.25
2022-12-31T14:17:34.282Z,13.25
2022-12-31T14:20:23.078Z,13.29
2022-12-31T14:23:12.296Z,13.28
2022-12-31T14:25:53.569Z,13.28
2022-12-31T14:28:40.371Z,13.27
2022-12-31T14:31:38.406Z,13.27
2022-12-31T14:34:37.723Z,13.27
2022-12-31T14:37:19.987Z,13.22
2022-12-31T14:40:06.666Z,13.20
2022-12-31T14:42:43.134Z,13.12
2022-12-31T14:45:31.879Z,13.11
2022-12-31T14:48:01.825Z,13.03
2022-12-31T14:50:30.570Z,12.97
2022-12-31T14:53:00.001Z,12.93
2022-12-31T14:55:37.836Z,12.88
2022-12-31T14:58:30.223Z,12.90
2022-12-31T15:01:04.486Z,13.01
2022-12-31T15:03:31.646Z,13.08
2022-12-31T15:06:22.753Z,13.07
2022-12-31T15:08:50.024Z,13.11
2022-12-31T15:11:37.813Z,13.09
2022-12-31T15:14:17.000Z,13.04
2022-12-31T15:17:04.189Z,13.08
2022-12-31T15:19:58.813Z,13.06
2022-12-31T15:22:48.382Z,13.03
2022-12-31T15:25:40.306Z,13.04
2022-12-31T15:28:29.027Z,13.02
2022-12-31T15:31:02.988Z,13.07
2022-12-31T15:33:37.648Z,13.03
2022-12-31T15:36:17.939Z,13.02
2022-12-31T15:38:45.717Z,13.04
2022-12-31T15:41:18.515Z,13.06
2022-12-31T15:43:51.131Z,13.11
2022-12-31T15:46:28.086Z,13.17
2022-12-31T15:49:15.846Z,13.25
2022-12-31T15:51:46.975Z,13.38
2022-12-31T15:54:21.751Z,13.40
2022-12-31T15:56:50.250Z,13.50
2022-12-31T15:59:18.842Z,13.63
2022-12-31T16:01:47.669Z,13.67
2022-12-31T16:04:42.570Z,13.68
2022-12-31T16:07:14.385Z,13.76
2022-12-31T16:09:41.830Z,13.69
2022-12-31T16:12:19.135Z,13.79
2022-12-31T16:14:51.596Z,13.78
2022-12-31T16:17:28.144Z,13.76
2022-12-31T16:19:58.207Z,13.85
2022-12-31T16:22:29.608Z,13.82
2022-12-31T16:27:50.148Z,13.84
2022-12-31T16:30:29.427Z,13.90
2022-12-31T16:33:01.773Z,13.84
2022-12-31T16:35:34.105Z,13.88
2022-12-31T16:38:10.610Z,13.97
2022-12-31T16:40:38.443Z,13.98
2022-12-31T16:43:24.151Z,13.85
2022-12-31T16:45:52.151Z,13.95
2022-12-31T16:48:21.146Z,13.99
2022-12-31T16:50:51.943Z,14.00
2022-12-31T16:53:24.860Z,13.98
2022-12-31T16:56:04.768Z,14.00
2022-12-31T16:58:37.624Z,14.07
2022-12-31T17:01:18.327Z,14.04
2022-12-31T17:03:50.454Z,14.03
2022-12-31T17:06:20.274Z,14.00
2022-12-31T17:09:07.912Z,13.97
2022-12-31T17:11:41.859Z,14.02
2022-12-31T17:14:08.894Z,14.11
2022-12-31T17:16:42.673Z,14.10
2022-12-31T17:19:30.915Z,14.07
2022-12-31T17:21:58.003Z,13.95
2022-12-31T17:24:25.269Z,13.89
2022-12-31T17:26:52.830Z,13.85
2022-12-31T17:29:26.085Z,13.89
2022-12-31T17:32:00.425Z,13.87
2022-12-31T17:34:33.665Z,13.83
2022-12-31T17:37:18.299Z,13.83
2022-12-31T17:40:17.395Z,13.92
2022-12-31T17:42:50.394Z,13.91
2022-12-31T17:45:22.156Z,13.86
2022-12-31T17:47:52.406Z,13.83
2022-12-31T17:50:23.608Z,13.83
2022-12-31T17:52:55.645Z,13.85
2022-12-31T17:55:23.122Z,13.83
2022-12-31T17:57:57.832Z,13.85
2022-12-31T18:00:26.868Z,13.86
2022-12-31T18:02:54.499Z,13.90
2022-12-31T18:05:23.719Z,13.93
2022-12-31T18:07:51.915Z,13.90
2022-12-31T18:10:22.173Z,13.96
2022-12-31T18:12:50.009Z,13.99
2022-12-31T18:15:21.809Z,13.96
2022-12-31T18:17:49.292Z,13.93
2022-12-31T18:20:16.876Z,13.92
2022-12-31T18:22:45.042Z,13.92
2022-12-31T18:25:22.860Z,13.95
2022-12-31T18:27:51.582Z,13.80
2022-12-31T18:30:19.004Z,13.85
2022-12-31T18:32:46.887Z,13.91
2022-12-31T18:36:07.662Z,13.90
2022-12-31T18:38:14.184Z,13.90
2022-12-31T18:40:44.279Z,13.98
2022-12-31T18:43:18.778Z,14.05
2022-12-31T18:45:47.321Z,14.02
2022-12-31T18:48:14.604Z,14.06
2022-12-31T18:50:42.138Z,14.04
2022-12-31T18:53:15.622Z,14.06
2022-12-31T18:55:51.979Z,14.09
2022-12-31T18:58:19.156Z,14.13
2022-12-31T19:00:47.407Z,14.16
2022-12-31T19:03:23.044Z,14.15
2022-12-31T19:05:52.061Z,14.09
2022-12-31T19:08:23.376Z,14.08
2022-12-31T19:10:51.891Z,14.13
2022-12-31T19:13:20.291Z,14.17
2022-12-31T19:15:50.177Z,14.12
2022-12-31T19:18:17.603Z,14.18
2022-12-31T19:20:44.888Z,14.13
2022-12-31T19:23:17.990Z,14.14
2022-12-31T19:25:46.932Z,14.14
2022-12-31T19:28:25.034Z,14.23
2022-12-31T19:30:52.997Z,14.22
2022-12-31T19:33:20.386Z,14.20
2022-12-31T19:35:47.725Z,14.16
2022-12-31T19:38:18.828Z,14.16
2022-12-31T19:40:46.870Z,14.03
2022-12-31T19:43:16.243Z,14.01
2022-12-31T19:45:44.026Z,14.05
2022-12-31T19:48:16.876Z,14.03
2022-12-31T19:50:46.770Z,14.00
2022-12-31T19:53:20.417Z,14.04
2022-12-31T19:55:48.677Z,14.11
2022-12-31T19:58:21.731Z,14.12
2022-12-31T20:00:55.692Z,14.08
2022-12-31T20:03:25.872Z,14.05
2022-12-31T20:06:03.074Z,14.07
2022-12-31T20:08:30.114Z,14.06
2022-12-31T20:10:58.809Z,13.99
2022-12-31T20:13:26.977Z,14.02
2022-12-31T20:15:54.626Z,14.02
2022-12-31T20:18:23.120Z,13.92
2022-12-31T20:20:55.515Z,13.96
2022-12-31T20:23:22.879Z,13.97
2022-12-31T20:25:57.669Z,14.02
2022-12-31T20:28:24.762Z,13.99
2022-12-31T20:30:52.303Z,14.05
2022-12-31T20:33:20.205Z,14.07
2022-12-31T20:35:47.357Z,14.05
2022-12-31T20:38:14.538Z,14.08
2022-12-31T20:40:46.669Z,14.08
2022-12-31T20:43:14.288Z,14.04
2022-12-31T20:45:41.656Z,14.04
2022-12-31T20:48:08.817Z,14.07
2022-12-31T20:50:36.705Z,14.08
2022-12-31T20:53:03.754Z,14.13
2022-12-31T20:55:31.461Z,14.07
2022-12-31T20:57:58.733Z,14.12
2022-12-31T21:00:25.785Z,14.13
2022-12-31T21:03:02.201Z,14.11
2022-12-31T21:05:35.603Z,14.06
2022-12-31T21:08:03.907Z,14.14
2022-12-31T21:10:30.934Z,14.18
2022-12-31T21:12:57.982Z,14.19
2022-12-31T21:15:25.077Z,14.18
2022-12-31T21:17:52.161Z,14.19
2022-12-31T21:20:19.166Z,14.20
2022-12-31T21:22:46.208Z,14.19
2022-12-31T21:25:13.349Z,14.26
2022-12-31T21:27:40.406Z,14.08
2022-12-31T21:30:19.407Z,14.14
2022-12-31T21:32:47.338Z,14.14
2022-12-31T21:35:42.304Z,14.14
2022-12-31T21:38:02.592Z,14.10
2022-12-31T21:40:31.379Z,14.03
2022-12-31T21:42:58.430Z,13.97
2022-12-31T21:45:25.473Z,13.95
2022-12-31T21:48:10.944Z,13.95
2022-12-31T21:50:38.273Z,13.99
2022-12-31T21:53:05.379Z,13.92
2022-12-31T21:55:51.131Z,13.82
2022-12-31T21:58:27.439Z,13.69
2022-12-31T22:01:15.256Z,13.64
2022-12-31T22:03:43.235Z,13.65
2022-12-31T22:06:16.133Z,13.68
2022-12-31T22:08:45.671Z,13.73
2022-12-31T22:11:13.593Z,13.77
2022-12-31T22:13:40.970Z,13.86
2022-12-31T22:16:08.850Z,13.89
2022-12-31T22:18:39.102Z,13.93
2022-12-31T22:21:18.306Z,13.88
2022-12-31T22:23:56.641Z,13.94
2022-12-31T22:26:26.476Z,13.86
2022-12-31T22:28:58.846Z,13.96
2022-12-31T22:31:30.000Z,14.00
2022-12-31T22:33:58.571Z,13.93
2022-12-31T22:36:25.661Z,13.97
2022-12-31T22:38:57.182Z,13.97
2022-12-31T22:41:25.754Z,14.03
2022-12-31T22:44:02.704Z,14.01
2022-12-31T22:46:31.374Z,14.11
2022-12-31T22:49:00.290Z,14.16
2022-12-31T22:51:56.281Z,14.20
2022-12-31T22:54:15.601Z,14.19
2022-12-31T22:56:42.841Z,14.24
2022-12-31T22:59:10.137Z,14.28
2022-12-31T23:01:38.191Z,14.31
2022-12-31T23:04:05.555Z,14.33
2022-12-31T23:06:43.069Z,14.28
2022-12-31T23:09:30.640Z,14.24
2022-12-31T23:11:58.151Z,14.25
2022-12-31T23:14:44.071Z,14.25
2022-12-31T23:17:38.611Z,14.27
2022-12-31T23:20:26.535Z,14.29
2022-12-31T23:23:11.757Z,14.24
2022-12-31T23:25:46.880Z,14.22
2022-12-31T23:28:20.794Z,14.25
2022-12-31T23:30:47.860Z,14.25
2022-12-31T23:33:18.713Z,14.24
2022-12-31T23:35:45.987Z,14.32
2022-12-31T23:38:13.963Z,14.32
2022-12-31T23:40:41.228Z,14.34
2022-12-31T23:43:20.394Z,14.35
2022-12-31T23:45:52.390Z,14.32
2022-12-31T23:48:19.553Z,14.28
2022-12-31T23:50:53.054Z,14.23
2022-12-31T23:53:22.655Z,14.18
2022-12-31T23:55:50.304Z,14.18
2022-12-31T23:58:17.460Z,14.20
